This is the latest recevied weather packets stored in our database for station/object KD9IXX-13. If no packets are shown the sender has not sent any weather packets the latest 10 day(s).
| Time | Temp. | Humidity | Pressure | Rain* | Wind** | Luminosity | Snow |
|---|---|---|---|---|---|---|---|
| 1787967602 | 20° C | 86% | 1021.2 hPa | 0 mm | - | 0 W/m² | - |
| 1787967304 | 20° C | 85% | 1021 hPa | 0 mm | - | 0 W/m² | - |
| 1787967002 | 20° C | 84% | 1021.2 hPa | 0 mm | - | 0 W/m² | - |
| 1787966102 | 20.56° C | 81% | 1021.3 hPa | 0 mm | - | 0 W/m² | - |
| 1787965802 | 20.56° C | 81% | 1021.1 hPa | 0 mm | - | 0 W/m² | - |
| 1787963702 | 22.22° C | 76% | 1020.8 hPa | 0 mm | - | 0 W/m² | - |
| 1787963102 | 23.33° C | 72% | 1021 hPa | 0 mm | - | 3 W/m² | - |
| 1787962802 | 23.33° C | 70% | 1020.9 hPa | 0 mm | - | 6 W/m² | - |
| 1787962202 | 23.89° C | 68% | 1020.8 hPa | 0 mm | - | 12 W/m² | - |
| 1787961602 | 24.44° C | 67% | 1020.7 hPa | 0 mm | - | 16 W/m² | - |
| 1787960702 | 25° C | 65% | 1020.9 hPa | 0 mm | - | 25 W/m² | - |
| 1787960102 | 26.11° C | 61% | 1020.6 hPa | 0 mm | - | 36 W/m² | - |
| 1787959802 | 26.11° C | 60% | 1020.8 hPa | 0 mm | - | 39 W/m² | - |
| 1787958901 | 26.67° C | 58% | 1020.8 hPa | 0 mm | - | 63 W/m² | - |
| 1787958302 | 26.67° C | 58% | 1020.5 hPa | 0 mm | - | 87 W/m² | - |
| 1787957702 | 27.22° C | 58% | 1020.8 hPa | 0 mm | - | 104 W/m² | - |
| 1787957102 | 27.22° C | 57% | 1021 hPa | 0 mm | - | 124 W/m² | - |
| 1787956202 | 27.78° C | 57% | 1021 hPa | 0 mm | - | 174 W/m² | - |
| 1787955902 | 27.78° C | 56% | 1021 hPa | 0 mm | - | 186 W/m² | - |
| 1787955002 | 27.78° C | 56% | 1020.9 hPa | 0 mm | - | 243 W/m² | - |
| 1787954702 | 27.78° C | 56% | 1020.8 hPa | 0 mm | - | 246 W/m² | - |
| 1787954102 | 27.78° C | 56% | 1020.9 hPa | 0 mm | - | 275 W/m² | - |
| 1787953502 | 28.33° C | 58% | 1020.7 hPa | 0 mm | - | 306 W/m² | - |
| 1787952902 | 27.78° C | 57% | 1021 hPa | 0 mm | - | 319 W/m² | - |
| 1787952602 | 28.33° C | 55% | 1021 hPa | 0 mm | - | 290 W/m² | - |
* Rain latest hour (hover to see other rain measurements)
** Current wind speed in m/s (hover to see current wind gust speed)